sensor_id;sensor_type;location;lat;lon;timestamp;temperature;humidity
37324;DHT22;23205;49.986;18.950;2022-10-20T00:04:50;6.00;99.90
37324;DHT22;23205;49.986;18.950;2022-10-20T00:09:50;5.90;99.90
37324;DHT22;23205;49.986;18.950;2022-10-20T00:14:51;5.70;99.90
37324;DHT22;23205;49.986;18.950;2022-10-20T00:19:52;5.80;99.90
37324;DHT22;23205;49.986;18.950;2022-10-20T00:24:53;5.90;99.90
37324;DHT22;23205;49.986;18.950;2022-10-20T00:29:54;5.90;99.90
37324;DHT22;23205;49.986;18.950;2022-10-20T00:34:55;5.90;99.90
37324;DHT22;23205;49.986;18.950;2022-10-20T00:39:55;5.90;99.90
37324;DHT22;23205;49.986;18.950;2022-10-20T00:44:58;5.90;99.90
37324;DHT22;23205;49.986;18.950;2022-10-20T00:50:09;5.80;99.90
37324;DHT22;23205;49.986;18.950;2022-10-20T00:55:15;5.80;99.90
37324;DHT22;23205;49.986;18.950;2022-10-20T01:00:17;5.80;99.90
37324;DHT22;23205;49.986;18.950;2022-10-20T01:05:18;5.70;99.90
37324;DHT22;23205;49.986;18.950;2022-10-20T01:10:20;5.60;99.90
37324;DHT22;23205;49.986;18.950;2022-10-20T01:15:24;5.30;99.90
37324;DHT22;23205;49.986;18.950;2022-10-20T01:31:35;5.10;99.90
37324;DHT22;23205;49.986;18.950;2022-10-20T01:41:56;5.00;99.90
37324;DHT22;23205;49.986;18.950;2022-10-20T01:46:58;4.90;99.90
37324;DHT22;23205;49.986;18.950;2022-10-20T01:51:59;4.90;99.90
37324;DHT22;23205;49.986;18.950;2022-10-20T02:07:27;4.60;99.90
37324;DHT22;23205;49.986;18.950;2022-10-20T02:12:33;4.50;99.90
37324;DHT22;23205;49.986;18.950;2022-10-20T02:17:36;4.40;99.90
37324;DHT22;23205;49.986;18.950;2022-10-20T02:22:39;4.20;99.90
37324;DHT22;23205;49.986;18.950;2022-10-20T02:27:45;4.20;99.90
37324;DHT22;23205;49.986;18.950;2022-10-20T02:32:48;4.20;99.90
37324;DHT22;23205;49.986;18.950;2022-10-20T02:37:51;4.20;99.90
37324;DHT22;23205;49.986;18.950;2022-10-20T02:42:51;4.10;99.90
37324;DHT22;23205;49.986;18.950;2022-10-20T02:47:52;4.20;99.90
37324;DHT22;23205;49.986;18.950;2022-10-20T02:52:53;4.50;99.90
37324;DHT22;23205;49.986;18.950;2022-10-20T02:57:54;4.60;99.90
37324;DHT22;23205;49.986;18.950;2022-10-20T03:02:54;4.60;99.90
37324;DHT22;23205;49.986;18.950;2022-10-20T03:07:55;4.80;99.90
37324;DHT22;23205;49.986;18.950;2022-10-20T03:12:56;4.80;99.90
37324;DHT22;23205;49.986;18.950;2022-10-20T03:17:57;4.70;99.90
37324;DHT22;23205;49.986;18.950;2022-10-20T03:22:58;4.70;99.90
37324;DHT22;23205;49.986;18.950;2022-10-20T03:27:58;4.60;99.90
37324;DHT22;23205;49.986;18.950;2022-10-20T03:32:59;4.50;99.90
37324;DHT22;23205;49.986;18.950;2022-10-20T03:38:00;4.60;99.90
37324;DHT22;23205;49.986;18.950;2022-10-20T03:43:00;4.60;99.90
37324;DHT22;23205;49.986;18.950;2022-10-20T03:48:01;4.70;99.90
37324;DHT22;23205;49.986;18.950;2022-10-20T03:53:02;4.60;99.90
37324;DHT22;23205;49.986;18.950;2022-10-20T03:58:03;4.70;99.90
37324;DHT22;23205;49.986;18.950;2022-10-20T04:03:03;4.70;99.90
37324;DHT22;23205;49.986;18.950;2022-10-20T04:08:04;4.70;99.90
37324;DHT22;23205;49.986;18.950;2022-10-20T04:13:05;4.40;99.90
37324;DHT22;23205;49.986;18.950;2022-10-20T04:18:06;4.50;99.90
37324;DHT22;23205;49.986;18.950;2022-10-20T04:23:07;4.60;99.90
37324;DHT22;23205;49.986;18.950;2022-10-20T04:28:07;4.70;99.90
37324;DHT22;23205;49.986;18.950;2022-10-20T04:33:09;4.80;99.90
37324;DHT22;23205;49.986;18.950;2022-10-20T04:38:09;4.90;99.90
37324;DHT22;23205;49.986;18.950;2022-10-20T04:43:10;5.00;99.90
37324;DHT22;23205;49.986;18.950;2022-10-20T04:48:11;5.00;99.90
37324;DHT22;23205;49.986;18.950;2022-10-20T04:53:12;5.00;99.90
37324;DHT22;23205;49.986;18.950;2022-10-20T04:58:12;5.10;99.90
37324;DHT22;23205;49.986;18.950;2022-10-20T05:03:13;4.90;99.90
37324;DHT22;23205;49.986;18.950;2022-10-20T05:08:14;4.90;99.90
37324;DHT22;23205;49.986;18.950;2022-10-20T05:13:15;4.80;99.90
37324;DHT22;23205;49.986;18.950;2022-10-20T05:18:15;4.90;99.90
37324;DHT22;23205;49.986;18.950;2022-10-20T05:23:16;5.00;99.90
37324;DHT22;23205;49.986;18.950;2022-10-20T05:28:17;5.10;99.90
37324;DHT22;23205;49.986;18.950;2022-10-20T05:33:17;5.00;99.90
37324;DHT22;23205;49.986;18.950;2022-10-20T05:38:18;4.90;99.90
37324;DHT22;23205;49.986;18.950;2022-10-20T05:43:19;4.90;99.90
37324;DHT22;23205;49.986;18.950;2022-10-20T05:48:19;5.00;99.90
37324;DHT22;23205;49.986;18.950;2022-10-20T05:53:20;5.00;99.90
37324;DHT22;23205;49.986;18.950;2022-10-20T05:58:21;4.90;99.90
37324;DHT22;23205;49.986;18.950;2022-10-20T06:03:22;4.80;99.90
37324;DHT22;23205;49.986;18.950;2022-10-20T06:08:23;4.90;99.90
37324;DHT22;23205;49.986;18.950;2022-10-20T06:13:24;5.10;99.90
37324;DHT22;23205;49.986;18.950;2022-10-20T06:18:24;5.20;99.90
37324;DHT22;23205;49.986;18.950;2022-10-20T06:23:25;5.40;99.90
37324;DHT22;23205;49.986;18.950;2022-10-20T06:28:28;5.40;99.90
37324;DHT22;23205;49.986;18.950;2022-10-20T06:33:29;5.60;99.90
37324;DHT22;23205;49.986;18.950;2022-10-20T06:38:30;5.70;99.90
37324;DHT22;23205;49.986;18.950;2022-10-20T06:43:31;5.80;99.90
37324;DHT22;23205;49.986;18.950;2022-10-20T06:48:33;5.90;99.90
37324;DHT22;23205;49.986;18.950;2022-10-20T06:53:34;6.10;99.90
37324;DHT22;23205;49.986;18.950;2022-10-20T06:58:37;6.20;99.90
37324;DHT22;23205;49.986;18.950;2022-10-20T07:03:38;6.30;99.90
37324;DHT22;23205;49.986;18.950;2022-10-20T07:08:39;6.40;99.90
37324;DHT22;23205;49.986;18.950;2022-10-20T07:13:40;6.50;99.90
37324;DHT22;23205;49.986;18.950;2022-10-20T07:18:41;6.70;99.90
37324;DHT22;23205;49.986;18.950;2022-10-20T07:23:42;6.80;99.90
37324;DHT22;23205;49.986;18.950;2022-10-20T07:28:45;7.00;99.90
37324;DHT22;23205;49.986;18.950;2022-10-20T07:33:47;7.10;99.90
37324;DHT22;23205;49.986;18.950;2022-10-20T07:38:47;7.10;99.90
37324;DHT22;23205;49.986;18.950;2022-10-20T07:43:48;7.20;99.90
37324;DHT22;23205;49.986;18.950;2022-10-20T07:48:49;7.60;99.90
37324;DHT22;23205;49.986;18.950;2022-10-20T07:53:51;7.90;99.90
37324;DHT22;23205;49.986;18.950;2022-10-20T07:58:53;8.20;99.90
37324;DHT22;23205;49.986;18.950;2022-10-20T08:03:54;8.40;99.90
37324;DHT22;23205;49.986;18.950;2022-10-20T08:08:55;8.60;99.90
37324;DHT22;23205;49.986;18.950;2022-10-20T08:13:55;8.70;99.90
37324;DHT22;23205;49.986;18.950;2022-10-20T08:18:56;8.90;99.90
37324;DHT22;23205;49.986;18.950;2022-10-20T08:23:57;9.10;99.90
37324;DHT22;23205;49.986;18.950;2022-10-20T08:28:58;9.40;99.90
37324;DHT22;23205;49.986;18.950;2022-10-20T08:33:59;10.00;99.90
37324;DHT22;23205;49.986;18.950;2022-10-20T08:39:00;10.60;99.90
37324;DHT22;23205;49.986;18.950;2022-10-20T08:44:01;10.50;99.90
37324;DHT22;23205;49.986;18.950;2022-10-20T08:49:05;11.10;99.90
37324;DHT22;23205;49.986;18.950;2022-10-20T08:54:13;11.70;99.90
37324;DHT22;23205;49.986;18.950;2022-10-20T08:59:35;12.10;99.90
37324;DHT22;23205;49.986;18.950;2022-10-20T09:05:00;12.00;99.90
37324;DHT22;23205;49.986;18.950;2022-10-20T09:15:17;13.00;99.90
37324;DHT22;23205;49.986;18.950;2022-10-20T09:20:22;13.00;99.90
37324;DHT22;23205;49.986;18.950;2022-10-20T09:25:24;13.50;99.90
37324;DHT22;23205;49.986;18.950;2022-10-20T09:35:32;15.50;95.80
37324;DHT22;23205;49.986;18.950;2022-10-20T09:40:35;16.20;92.00
37324;DHT22;23205;49.986;18.950;2022-10-20T09:45:55;16.50;92.10
37324;DHT22;23205;49.986;18.950;2022-10-20T09:50:58;17.00;90.90
37324;DHT22;23205;49.986;18.950;2022-10-20T09:55:59;17.80;85.00
37324;DHT22;23205;49.986;18.950;2022-10-20T10:01:15;17.00;85.50
37324;DHT22;23205;49.986;18.950;2022-10-20T10:06:39;18.10;84.40
37324;DHT22;23205;49.986;18.950;2022-10-20T10:11:41;18.80;80.00
37324;DHT22;23205;49.986;18.950;2022-10-20T10:16:42;19.50;76.30
37324;DHT22;23205;49.986;18.950;2022-10-20T10:21:47;23.00;69.70
37324;DHT22;23205;49.986;18.950;2022-10-20T10:26:54;23.90;65.40
37324;DHT22;23205;49.986;18.950;2022-10-20T10:32:15;24.10;63.30
37324;DHT22;23205;49.986;18.950;2022-10-20T10:37:17;25.60;59.60
37324;DHT22;23205;49.986;18.950;2022-10-20T10:53:08;27.40;55.70
37324;DHT22;23205;49.986;18.950;2022-10-20T11:20:00;29.30;50.40
37324;DHT22;23205;49.986;18.950;2022-10-20T11:25:17;30.60;49.90
37324;DHT22;23205;49.986;18.950;2022-10-20T11:30:22;30.80;49.00
37324;DHT22;23205;49.986;18.950;2022-10-20T11:40:34;32.20;47.50
37324;DHT22;23205;49.986;18.950;2022-10-20T11:45:51;32.40;46.90
37324;DHT22;23205;49.986;18.950;2022-10-20T11:51:17;31.80;46.90
37324;DHT22;23205;49.986;18.950;2022-10-20T12:17:30;32.40;45.10
37324;DHT22;23205;49.986;18.950;2022-10-20T12:22:38;33.40;44.70
37324;DHT22;23205;49.986;18.950;2022-10-20T12:27:39;33.70;44.70
37324;DHT22;23205;49.986;18.950;2022-10-20T12:33:08;32.40;45.60
37324;DHT22;23205;49.986;18.950;2022-10-20T12:38:15;30.90;46.20
37324;DHT22;23205;49.986;18.950;2022-10-20T12:43:45;30.80;46.10
37324;DHT22;23205;49.986;18.950;2022-10-20T12:48:48;30.40;45.80
37324;DHT22;23205;49.986;18.950;2022-10-20T12:54:00;30.40;46.00
37324;DHT22;23205;49.986;18.950;2022-10-20T13:05:01;29.50;46.50
37324;DHT22;23205;49.986;18.950;2022-10-20T13:20:52;28.10;47.00
37324;DHT22;23205;49.986;18.950;2022-10-20T13:25:57;28.10;47.00
37324;DHT22;23205;49.986;18.950;2022-10-20T13:31:05;27.20;47.40
37324;DHT22;23205;49.986;18.950;2022-10-20T13:36:32;27.20;47.30
37324;DHT22;23205;49.986;18.950;2022-10-20T13:41:42;26.60;48.00
37324;DHT22;23205;49.986;18.950;2022-10-20T13:52:14;25.60;49.00
37324;DHT22;23205;49.986;18.950;2022-10-20T14:02:33;24.90;49.10
37324;DHT22;23205;49.986;18.950;2022-10-20T14:07:41;25.10;49.60
37324;DHT22;23205;49.986;18.950;2022-10-20T14:12:43;24.70;51.00
37324;DHT22;23205;49.986;18.950;2022-10-20T14:18:04;24.90;50.40
37324;DHT22;23205;49.986;18.950;2022-10-20T14:23:05;24.20;51.70
37324;DHT22;23205;49.986;18.950;2022-10-20T14:28:17;23.50;52.40
37324;DHT22;23205;49.986;18.950;2022-10-20T14:33:19;22.10;54.30
37324;DHT22;23205;49.986;18.950;2022-10-20T14:38:31;20.40;56.60
37324;DHT22;23205;49.986;18.950;2022-10-20T14:43:42;18.60;60.70
37324;DHT22;23205;49.986;18.950;2022-10-20T14:48:48;17.30;64.10
37324;DHT22;23205;49.986;18.950;2022-10-20T14:53:49;16.70;65.50
37324;DHT22;23205;49.986;18.950;2022-10-20T14:58:59;15.70;67.00
37324;DHT22;23205;49.986;18.950;2022-10-20T15:04:23;15.20;69.30
37324;DHT22;23205;49.986;18.950;2022-10-20T15:09:39;14.50;70.70
37324;DHT22;23205;49.986;18.950;2022-10-20T15:14:44;14.20;70.80
37324;DHT22;23205;49.986;18.950;2022-10-20T15:19:45;14.00;71.50
37324;DHT22;23205;49.986;18.950;2022-10-20T15:24:46;13.60;74.40
37324;DHT22;23205;49.986;18.950;2022-10-20T15:29:50;13.40;75.40
37324;DHT22;23205;49.986;18.950;2022-10-20T15:34:51;13.20;75.60
37324;DHT22;23205;49.986;18.950;2022-10-20T15:39:52;12.80;76.70
37324;DHT22;23205;49.986;18.950;2022-10-20T15:44:52;12.40;78.30
37324;DHT22;23205;49.986;18.950;2022-10-20T15:49:53;12.10;79.50
37324;DHT22;23205;49.986;18.950;2022-10-20T15:54:54;11.90;81.50
37324;DHT22;23205;49.986;18.950;2022-10-20T15:59:55;11.50;82.80
37324;DHT22;23205;49.986;18.950;2022-10-20T16:04:55;11.30;84.40
37324;DHT22;23205;49.986;18.950;2022-10-20T16:09:56;11.10;84.60
37324;DHT22;23205;49.986;18.950;2022-10-20T16:14:57;10.90;86.40
37324;DHT22;23205;49.986;18.950;2022-10-20T16:19:57;10.60;86.80
37324;DHT22;23205;49.986;18.950;2022-10-20T16:24:58;10.40;89.20
37324;DHT22;23205;49.986;18.950;2022-10-20T16:30:03;10.40;90.20
37324;DHT22;23205;49.986;18.950;2022-10-20T16:35:05;10.10;91.30
37324;DHT22;23205;49.986;18.950;2022-10-20T16:40:06;9.90;92.70
37324;DHT22;23205;49.986;18.950;2022-10-20T16:45:07;9.70;93.90
37324;DHT22;23205;49.986;18.950;2022-10-20T16:50:08;9.60;94.60
37324;DHT22;23205;49.986;18.950;2022-10-20T16:55:09;9.50;95.40
37324;DHT22;23205;49.986;18.950;2022-10-20T17:00:10;9.30;97.10
37324;DHT22;23205;49.986;18.950;2022-10-20T17:05:11;9.10;98.30
37324;DHT22;23205;49.986;18.950;2022-10-20T17:10:12;9.10;99.70
37324;DHT22;23205;49.986;18.950;2022-10-20T17:15:13;9.10;99.90
37324;DHT22;23205;49.986;18.950;2022-10-20T17:20:13;8.70;99.90
37324;DHT22;23205;49.986;18.950;2022-10-20T17:25:14;8.70;99.90
37324;DHT22;23205;49.986;18.950;2022-10-20T17:30:15;8.70;99.90
37324;DHT22;23205;49.986;18.950;2022-10-20T17:35:16;8.60;99.90
37324;DHT22;23205;49.986;18.950;2022-10-20T17:40:16;8.50;99.90
37324;DHT22;23205;49.986;18.950;2022-10-20T17:45:21;8.40;99.90
37324;DHT22;23205;49.986;18.950;2022-10-20T17:50:22;8.30;99.90
37324;DHT22;23205;49.986;18.950;2022-10-20T17:55:22;8.20;99.90
37324;DHT22;23205;49.986;18.950;2022-10-20T18:00:23;8.20;99.90
37324;DHT22;23205;49.986;18.950;2022-10-20T18:05:24;8.10;99.90
37324;DHT22;23205;49.986;18.950;2022-10-20T18:10:24;7.90;99.90
37324;DHT22;23205;49.986;18.950;2022-10-20T18:15:25;7.70;99.90
37324;DHT22;23205;49.986;18.950;2022-10-20T18:20:26;7.60;99.90
37324;DHT22;23205;49.986;18.950;2022-10-20T18:25:27;7.60;99.90
37324;DHT22;23205;49.986;18.950;2022-10-20T18:30:27;7.70;99.90
37324;DHT22;23205;49.986;18.950;2022-10-20T18:35:28;7.70;99.90
37324;DHT22;23205;49.986;18.950;2022-10-20T18:40:30;7.60;99.90
37324;DHT22;23205;49.986;18.950;2022-10-20T18:45:31;7.70;99.90
37324;DHT22;23205;49.986;18.950;2022-10-20T18:50:32;7.60;99.90
37324;DHT22;23205;49.986;18.950;2022-10-20T18:55:33;7.60;99.90
37324;DHT22;23205;49.986;18.950;2022-10-20T19:00:37;7.50;99.90
37324;DHT22;23205;49.986;18.950;2022-10-20T19:05:37;7.40;99.90
37324;DHT22;23205;49.986;18.950;2022-10-20T19:10:41;7.40;99.90
37324;DHT22;23205;49.986;18.950;2022-10-20T19:15:43;7.30;99.90
37324;DHT22;23205;49.986;18.950;2022-10-20T19:20:55;7.10;99.90
37324;DHT22;23205;49.986;18.950;2022-10-20T19:31:21;6.90;99.90
37324;DHT22;23205;49.986;18.950;2022-10-20T19:36:24;6.90;99.90
37324;DHT22;23205;49.986;18.950;2022-10-20T19:41:25;6.80;99.90
37324;DHT22;23205;49.986;18.950;2022-10-20T19:46:26;6.60;99.90
37324;DHT22;23205;49.986;18.950;2022-10-20T19:51:27;6.50;99.90
37324;DHT22;23205;49.986;18.950;2022-10-20T19:56:28;6.50;99.90
37324;DHT22;23205;49.986;18.950;2022-10-20T20:01:29;6.50;99.90
37324;DHT22;23205;49.986;18.950;2022-10-20T20:06:29;6.50;99.90
37324;DHT22;23205;49.986;18.950;2022-10-20T20:11:30;6.50;99.90
37324;DHT22;23205;49.986;18.950;2022-10-20T20:16:31;6.40;99.90
37324;DHT22;23205;49.986;18.950;2022-10-20T20:21:32;6.20;99.90
37324;DHT22;23205;49.986;18.950;2022-10-20T20:26:35;6.10;99.90
37324;DHT22;23205;49.986;18.950;2022-10-20T20:31:36;6.00;99.90
37324;DHT22;23205;49.986;18.950;2022-10-20T20:36:37;5.80;99.90
37324;DHT22;23205;49.986;18.950;2022-10-20T20:41:38;5.80;99.90
37324;DHT22;23205;49.986;18.950;2022-10-20T20:46:39;5.70;99.90
37324;DHT22;23205;49.986;18.950;2022-10-20T20:51:40;5.60;99.90
37324;DHT22;23205;49.986;18.950;2022-10-20T20:56:41;5.50;99.90
37324;DHT22;23205;49.986;18.950;2022-10-20T21:01:42;5.40;99.90
37324;DHT22;23205;49.986;18.950;2022-10-20T21:06:44;5.30;99.90
37324;DHT22;23205;49.986;18.950;2022-10-20T21:11:45;5.10;99.90
37324;DHT22;23205;49.986;18.950;2022-10-20T21:16:48;5.10;99.90
37324;DHT22;23205;49.986;18.950;2022-10-20T21:21:48;4.90;99.90
37324;DHT22;23205;49.986;18.950;2022-10-20T21:26:50;4.90;99.90
37324;DHT22;23205;49.986;18.950;2022-10-20T21:31:50;4.80;99.90
37324;DHT22;23205;49.986;18.950;2022-10-20T21:36:51;4.70;99.90
37324;DHT22;23205;49.986;18.950;2022-10-20T21:41:52;4.60;99.90
37324;DHT22;23205;49.986;18.950;2022-10-20T21:46:53;4.60;99.90
37324;DHT22;23205;49.986;18.950;2022-10-20T21:51:55;4.50;99.90
37324;DHT22;23205;49.986;18.950;2022-10-20T21:56:56;4.50;99.90
37324;DHT22;23205;49.986;18.950;2022-10-20T22:01:59;4.50;99.90
37324;DHT22;23205;49.986;18.950;2022-10-20T22:07:00;4.40;99.90
37324;DHT22;23205;49.986;18.950;2022-10-20T22:12:01;4.30;99.90
37324;DHT22;23205;49.986;18.950;2022-10-20T22:17:01;4.40;99.90
37324;DHT22;23205;49.986;18.950;2022-10-20T22:22:02;4.30;99.90
37324;DHT22;23205;49.986;18.950;2022-10-20T22:27:03;4.20;99.90
37324;DHT22;23205;49.986;18.950;2022-10-20T22:32:04;4.20;99.90
37324;DHT22;23205;49.986;18.950;2022-10-20T22:37:04;4.20;99.90
37324;DHT22;23205;49.986;18.950;2022-10-20T22:42:05;4.10;99.90
37324;DHT22;23205;49.986;18.950;2022-10-20T22:47:06;4.10;99.90
37324;DHT22;23205;49.986;18.950;2022-10-20T22:52:06;4.10;99.90
37324;DHT22;23205;49.986;18.950;2022-10-20T22:57:07;4.00;99.90
37324;DHT22;23205;49.986;18.950;2022-10-20T23:02:08;3.90;99.90
37324;DHT22;23205;49.986;18.950;2022-10-20T23:07:09;4.00;99.90
37324;DHT22;23205;49.986;18.950;2022-10-20T23:12:09;3.90;99.90
37324;DHT22;23205;49.986;18.950;2022-10-20T23:17:10;3.90;99.90
37324;DHT22;23205;49.986;18.950;2022-10-20T23:22:11;3.90;99.90
37324;DHT22;23205;49.986;18.950;2022-10-20T23:27:11;3.80;99.90
37324;DHT22;23205;49.986;18.950;2022-10-20T23:32:12;3.80;99.90
37324;DHT22;23205;49.986;18.950;2022-10-20T23:37:13;3.80;99.90
37324;DHT22;23205;49.986;18.950;2022-10-20T23:42:14;3.80;99.90
37324;DHT22;23205;49.986;18.950;2022-10-20T23:47:14;3.70;99.90
37324;DHT22;23205;49.986;18.950;2022-10-20T23:52:15;3.90;99.90
37324;DHT22;23205;49.986;18.950;2022-10-20T23:57:16;3.90;99.90
